Time;durP1;ratioP1;P1;durP2;ratioP2;P2;SDS_P1;SDS_P2;PMS_P1;PMS_P2;Temp;Humidity;BMP_temperature;BMP_pressure;BME280_temperature;BME280_humidity;BME280_pressure;Samples;Min_cycle;Max_cycle;Signal;HPM_P1;HPM_P2
2022/01/27 00:05:32;;;;;;;52.50;30.52;;;;;;;3.11;86.84;102756.38;4951282;28;20114;-87
2022/01/27 00:13:19;;;;;;;50.42;31.17;;;;;;;3.09;86.91;102739.94;4992012;28;20450;-89
2022/01/27 00:15:49;;;;;;;52.25;30.80;;;;;;;3.03;86.88;102727.00;4975098;28;20022;-89
2022/01/27 00:18:18;;;;;;;56.08;31.38;;;;;;;3.08;87.35;102730.41;4973515;28;20387;-85
2022/01/27 00:20:47;;;;;;;47.85;30.45;;;;;;;3.04;86.85;102697.53;4992244;28;20339;-86
2022/01/27 00:23:13;;;;;;;51.33;30.50;;;;;;;3.05;86.72;102704.44;4992695;28;20407;-86
2022/01/27 00:25:39;;;;;;;50.15;30.13;;;;;;;3.10;86.79;102710.44;4991892;28;20101;-86
2022/01/27 00:28:07;;;;;;;55.17;31.08;;;;;;;3.07;86.91;102702.69;4974802;28;20030;-88
2022/01/27 00:30:34;;;;;;;53.17;31.52;;;;;;;3.12;87.16;102715.63;4992279;28;20034;-89
2022/01/27 00:32:59;;;;;;;50.90;30.15;;;;;;;3.10;87.20;102718.25;4991883;28;20081;-86
2022/01/27 00:35:24;;;;;;;51.10;30.25;;;;;;;3.07;86.69;102718.28;4990533;28;20030;-86
2022/01/27 00:37:50;;;;;;;53.35;30.25;;;;;;;3.07;86.60;102713.09;4990647;28;20034;-85
2022/01/27 00:40:16;;;;;;;52.67;31.58;;;;;;;3.12;86.70;102716.47;4990847;28;20030;-89
2022/01/27 00:42:42;;;;;;;53.55;30.33;;;;;;;3.11;87.05;102706.97;4990972;28;20022;-85
2022/01/27 00:45:08;;;;;;;52.83;30.08;;;;;;;3.13;86.69;102706.94;4990619;28;20059;-85
2022/01/27 00:47:34;;;;;;;53.17;31.38;;;;;;;3.17;86.52;102712.97;4991211;28;20022;-88
2022/01/27 00:49:59;;;;;;;53.45;30.48;;;;;;;3.18;86.62;102710.34;4995805;28;20033;-89
2022/01/27 00:52:33;;;;;;;48.83;30.90;;;;;;;3.13;86.55;102686.13;4991815;28;20026;-86
2022/01/27 00:54:58;;;;;;;49.35;30.70;;;;;;;3.17;87.31;102690.41;4989286;28;20113;-89
2022/01/27 00:59:59;;;;;;;51.05;30.27;;;;;;;3.21;87.18;102683.44;4991096;28;20030;-89
2022/01/27 01:05:21;;;;;;;52.15;29.98;;;;;;;3.21;87.26;102681.72;4990770;28;20057;-89
2022/01/27 01:07:51;;;;;;;51.75;29.70;;;;;;;3.20;86.77;102676.50;4990155;28;20105;-86
2022/01/27 01:15:43;;;;;;;49.25;27.23;;;;;;;3.24;86.49;102665.19;4991657;28;20540;-86
2022/01/27 01:34:21;;;;;;;45.60;27.55;;;;;;;3.34;86.35;102669.38;4991850;28;20053;-88
2022/01/27 01:36:57;;;;;;;46.83;28.23;;;;;;;3.29;86.99;102639.97;4973830;28;20430;-86
2022/01/27 01:39:26;;;;;;;47.60;28.90;;;;;;;3.33;86.49;102652.06;4991652;28;20026;-86
2022/01/27 01:41:52;;;;;;;49.25;28.95;;;;;;;3.36;86.61;102646.81;4990321;28;20077;-89
2022/01/27 01:44:17;;;;;;;49.58;29.50;;;;;;;3.38;86.82;102637.22;4970930;28;20034;-86
2022/01/27 01:46:43;;;;;;;45.10;28.98;;;;;;;3.32;86.84;102611.31;4974650;28;20033;-89
2022/01/27 01:49:09;;;;;;;45.88;28.60;;;;;;;3.35;86.67;102621.66;4994089;28;20109;-89
2022/01/27 01:51:36;;;;;;;48.83;29.13;;;;;;;3.38;86.15;102609.47;4994524;28;20088;-85
2022/01/27 01:54:03;;;;;;;46.28;28.27;;;;;;;3.39;86.53;102615.53;4993093;28;20120;-89
2022/01/27 01:56:29;;;;;;;44.33;29.05;;;;;;;3.39;86.90;102625.94;4994610;28;20022;-85
2022/01/27 01:58:54;;;;;;;46.30;28.98;;;;;;;3.37;86.49;102632.91;4993425;28;20038;-85
2022/01/27 02:01:21;;;;;;;42.97;28.20;;;;;;;3.40;86.66;102627.66;4994332;28;20026;-89
2022/01/27 02:03:48;;;;;;;48.67;28.70;;;;;;;3.39;86.51;102610.34;4994367;28;20031;-85
2022/01/27 02:06:22;;;;;;;48.80;29.10;;;;;;;3.39;86.61;102620.75;4977559;28;20484;-85
2022/01/27 02:19:52;;;;;;;47.20;27.63;;;;;;;3.47;86.53;102587.66;4992555;28;20076;-88
2022/01/27 02:22:18;;;;;;;45.75;27.90;;;;;;;3.44;86.49;102564.28;5009770;28;20049;-86
2022/01/27 02:24:43;;;;;;;43.17;27.35;;;;;;;3.48;86.74;102578.94;4994222;28;20545;-85
2022/01/27 02:27:09;;;;;;;49.83;27.77;;;;;;;3.47;86.18;102570.28;4994442;28;20038;-86
2022/01/27 02:29:34;;;;;;;43.72;26.73;;;;;;;3.47;86.63;102583.31;4977106;28;20062;-89
2022/01/27 02:32:01;;;;;;;43.53;26.85;;;;;;;3.49;86.50;102588.47;4994028;28;20118;-86
2022/01/27 02:34:27;;;;;;;42.38;27.50;;;;;;;3.49;86.92;102587.63;4994838;28;20026;-89
2022/01/27 02:36:53;;;;;;;45.15;27.02;;;;;;;3.51;86.73;102581.50;4993495;28;20018;-86
2022/01/27 02:39:19;;;;;;;45.28;27.27;;;;;;;3.47;86.75;102582.44;4993674;28;20030;-86
2022/01/27 02:41:44;;;;;;;44.40;27.13;;;;;;;3.53;86.79;102586.69;4993194;28;20076;-86
2022/01/27 02:44:15;;;;;;;42.20;27.05;;;;;;;3.51;86.68;102572.84;4993983;28;20031;-89
2022/01/27 02:46:44;;;;;;;42.75;26.17;;;;;;;3.49;87.08;102557.25;4994278;28;20096;-89
2022/01/27 02:49:10;;;;;;;45.50;26.75;;;;;;;3.52;86.60;102565.00;4994984;28;20034;-85
2022/01/27 02:51:37;;;;;;;42.63;26.25;;;;;;;3.55;87.18;102564.09;4977564;28;20038;-87
2022/01/27 02:54:04;;;;;;;42.75;26.33;;;;;;;3.56;86.95;102556.25;4974885;28;20438;-85
2022/01/27 02:56:29;;;;;;;43.88;26.30;;;;;;;3.58;87.00;102564.91;4993642;28;20050;-86
2022/01/27 02:58:55;;;;;;;45.63;26.55;;;;;;;3.55;87.31;102546.72;4992954;28;20019;-85
2022/01/27 03:01:21;;;;;;;40.08;24.80;;;;;;;3.54;87.05;102542.41;4990747;28;20035;-85
2022/01/27 03:03:47;;;;;;;44.15;25.60;;;;;;;3.61;86.94;102538.84;4992448;28;20025;-86
2022/01/27 03:06:12;;;;;;;43.38;25.70;;;;;;;3.61;86.80;102533.66;4992058;28;20026;-85
2022/01/27 03:08:39;;;;;;;45.00;27.13;;;;;;;3.57;86.59;102515.47;4993030;28;20034;-89
2022/01/27 03:11:11;;;;;;;43.22;26.00;;;;;;;3.58;87.18;102512.00;4992339;28;20022;-85
2022/01/27 03:13:36;;;;;;;43.05;26.10;;;;;;;3.57;87.39;102512.88;4994393;28;20034;-85
2022/01/27 03:16:05;;;;;;;44.88;26.50;;;;;;;3.64;87.30;102532.72;4992695;28;20434;-86
2022/01/27 03:18:31;;;;;;;44.83;26.60;;;;;;;3.56;86.67;102518.97;4976052;28;20030;-86
2022/01/27 03:20:57;;;;;;;39.78;25.20;;;;;;;3.62;87.65;102540.56;4974645;28;20026;-85
2022/01/27 03:23:23;;;;;;;45.88;25.73;;;;;;;3.62;87.43;102527.56;4976087;28;20022;-89
2022/01/27 03:25:48;;;;;;;42.75;25.27;;;;;;;3.59;87.12;102514.56;4991848;28;20034;-87
2022/01/27 03:28:14;;;;;;;41.33;24.90;;;;;;;3.60;87.40;102511.09;4993453;28;20030;-89
2022/01/27 03:30:40;;;;;;;44.22;26.02;;;;;;;3.60;87.75;102508.50;4993717;28;20398;-88
2022/01/27 03:33:05;;;;;;;45.90;25.42;;;;;;;3.62;87.33;102509.34;4976242;28;20026;-89
2022/01/27 03:35:31;;;;;;;42.80;24.85;;;;;;;3.58;87.40;102492.03;4993343;28;20169;-86
2022/01/27 03:37:56;;;;;;;41.03;24.67;;;;;;;3.63;87.48;102503.25;4992920;28;20105;-85
2022/01/27 03:40:21;;;;;;;41.22;25.35;;;;;;;3.57;87.62;102479.91;4993291;28;20403;-85
2022/01/27 03:43:01;;;;;;;40.67;24.23;;;;;;;3.62;87.54;102501.53;4992805;28;20030;-86
2022/01/27 03:45:27;;;;;;;42.40;25.42;;;;;;;3.56;87.82;102496.41;4981405;28;20050;-89
2022/01/27 03:47:52;;;;;;;44.50;26.27;;;;;;;3.61;87.27;102501.56;4973663;28;20049;-88
2022/01/27 03:50:18;;;;;;;42.40;24.75;;;;;;;3.60;87.77;102505.00;4974003;28;20384;-89
2022/01/27 03:52:43;;;;;;;47.47;25.80;;;;;;;3.56;88.11;102491.19;4973813;28;20027;-86
2022/01/27 03:55:10;;;;;;;44.80;25.55;;;;;;;3.62;87.93;102509.34;4974730;28;20106;-85
2022/01/27 03:57:35;;;;;;;42.78;24.98;;;;;;;3.63;88.02;102505.84;4973902;28;20042;-88
2022/01/27 04:00:01;;;;;;;46.40;25.17;;;;;;;3.59;87.87;102488.53;4974407;28;20031;-85
2022/01/27 04:02:26;;;;;;;42.75;24.52;;;;;;;3.62;87.79;102480.69;4986739;28;20439;-88
2022/01/27 04:04:52;;;;;;;41.30;24.67;;;;;;;3.62;88.37;102474.66;4992540;28;20022;-88
2022/01/27 04:07:17;;;;;;;44.78;24.92;;;;;;;3.64;88.25;102486.75;4974921;28;20625;-86
2022/01/27 04:09:42;;;;;;;45.42;25.02;;;;;;;3.65;88.72;102472.84;4992648;28;20022;-89
2022/01/27 04:12:08;;;;;;;46.55;25.73;;;;;;;3.68;88.45;102472.78;4975031;28;20106;-89
2022/01/27 04:14:33;;;;;;;42.70;24.83;;;;;;;3.68;88.37;102462.38;4975919;28;20014;-89
2022/01/27 04:16:59;;;;;;;41.88;24.35;;;;;;;3.69;88.75;102458.88;4991856;28;20086;-89
2022/01/27 04:19:25;;;;;;;41.58;23.58;;;;;;;3.64;88.79;102439.88;4991711;28;20089;-86
2022/01/27 04:21:50;;;;;;;42.97;24.27;;;;;;;3.69;88.53;102453.66;4992453;28;20054;-85
2022/01/27 04:24:17;;;;;;;40.05;23.63;;;;;;;3.72;88.26;102456.22;4992938;28;20026;-88
2022/01/27 04:26:47;;;;;;;45.67;23.95;;;;;;;3.69;88.53;102461.47;4992996;28;20426;-85
2022/01/27 04:29:14;;;;;;;42.70;24.00;;;;;;;3.72;88.33;102452.75;4993114;28;20033;-85
2022/01/27 04:31:50;;;;;;;45.88;24.40;;;;;;;3.71;88.77;102462.31;5065127;28;20056;-74
2022/01/27 04:34:15;;;;;;;41.08;23.75;;;;;;;3.72;88.73;102463.16;5066107;28;20400;-74
2022/01/27 04:36:42;;;;;;;40.95;23.08;;;;;;;3.73;89.09;102462.28;5061144;28;20040;-74
2022/01/27 04:41:52;;;;;;;43.22;23.48;;;;;;;3.73;88.66;102442.31;5067990;28;20068;-82
2022/01/27 04:44:31;;;;;;;38.13;23.05;;;;;;;3.72;88.68;102435.38;5067302;28;20426;-75
2022/01/27 04:47:06;;;;;;;41.60;23.27;;;;;;;3.74;88.93;102435.34;5063881;28;20025;-74
2022/01/27 04:49:32;;;;;;;40.22;23.38;;;;;;;3.72;88.71;102432.78;5066086;28;20025;-75
2022/01/27 04:51:57;;;;;;;40.88;23.05;;;;;;;3.73;88.97;102431.91;5066299;28;20031;-74
2022/01/27 04:57:20;;;;;;;38.53;23.48;;;;;;;3.70;88.96;102438.91;5065693;28;20040;-81
2022/01/27 04:59:46;;;;;;;45.53;23.20;;;;;;;3.71;89.06;102425.00;5066241;28;20362;-74
2022/01/27 05:02:31;;;;;;;42.20;23.83;;;;;;;3.71;88.76;102415.44;5058679;28;20035;-75
2022/01/27 05:04:57;;;;;;;42.63;23.00;;;;;;;3.69;88.91;102414.63;5076249;28;20029;-83
2022/01/27 05:07:22;;;;;;;37.88;22.25;;;;;;;3.70;89.06;102403.31;5064603;28;20043;-76
2022/01/27 05:09:59;;;;;;;41.78;23.35;;;;;;;3.68;89.12;102399.91;5065040;28;20024;-75
2022/01/27 05:12:46;;;;;;;44.30;23.10;;;;;;;3.68;89.10;102415.50;5060633;28;20029;-75
2022/01/27 05:15:12;;;;;;;42.58;23.25;;;;;;;3.65;89.17;102405.16;5084246;28;20028;-75
2022/01/27 05:17:37;;;;;;;40.33;22.33;;;;;;;3.64;89.41;102408.66;5084827;28;20479;-75
2022/01/27 05:20:03;;;;;;;43.15;22.40;;;;;;;3.66;89.33;102400.81;5064621;28;20017;-75
2022/01/27 05:22:31;;;;;;;42.42;22.65;;;;;;;3.66;89.74;102399.06;5065430;28;20032;-75
2022/01/27 05:24:56;;;;;;;42.53;23.92;;;;;;;3.65;89.56;102404.31;5065511;28;20028;-74
2022/01/27 05:27:22;;;;;;;40.40;22.20;;;;;;;3.63;89.66;102383.53;5075125;28;20033;-82
2022/01/27 05:29:47;;;;;;;43.03;22.52;;;;;;;3.66;89.89;102391.25;5063717;28;20081;-82
2022/01/27 05:32:12;;;;;;;41.38;22.63;;;;;;;3.63;90.08;102383.53;5064628;28;20025;-75
2022/01/27 05:34:37;;;;;;;41.35;23.48;;;;;;;3.65;90.23;102368.72;5063714;28;20012;-75
2022/01/27 05:37:03;;;;;;;43.75;23.65;;;;;;;3.67;89.71;102366.94;5063529;28;20024;-75
2022/01/27 05:39:29;;;;;;;41.30;22.92;;;;;;;3.69;89.60;102380.78;5065140;28;20155;-74
2022/01/27 05:41:54;;;;;;;45.30;24.00;;;;;;;3.68;90.07;102373.00;5056283;28;20037;-74
2022/01/27 05:44:19;;;;;;;45.10;24.15;;;;;;;3.65;89.88;102362.66;5045872;28;20065;-74
2022/01/27 05:46:45;;;;;;;42.42;23.80;;;;;;;3.69;90.26;102370.38;5051673;28;20072;-74
2022/01/27 05:49:11;;;;;;;41.75;23.75;;;;;;;3.71;89.74;102379.00;5051210;28;20036;-76
2022/01/27 05:51:37;;;;;;;39.03;23.20;;;;;;;3.74;90.16;102378.09;5051349;28;20021;-76
2022/01/27 05:54:02;;;;;;;43.30;23.85;;;;;;;3.68;89.67;102358.25;5051800;28;20025;-76
2022/01/27 05:56:27;;;;;;;44.15;23.60;;;;;;;3.77;90.17;102378.88;5051844;28;20365;-76
2022/01/27 05:58:53;;;;;;;45.42;23.95;;;;;;;3.72;90.24;102359.91;5050376;28;20032;-74
2022/01/27 06:01:18;;;;;;;44.60;24.60;;;;;;;3.80;90.23;102364.09;5047539;28;20028;-75
2022/01/27 06:03:43;;;;;;;42.97;24.27;;;;;;;3.77;90.60;102365.88;5030121;28;20440;-74
2022/01/27 06:06:09;;;;;;;44.42;23.35;;;;;;;3.80;90.17;102354.53;5039889;28;20031;-74
2022/01/27 06:08:34;;;;;;;46.58;23.25;;;;;;;3.80;90.02;102367.53;5052125;28;20048;-74
2022/01/27 06:11:00;;;;;;;45.92;24.55;;;;;;;3.85;90.28;102359.63;5049342;28;20079;-74
2022/01/27 06:13:25;;;;;;;42.92;23.63;;;;;;;3.89;90.56;102366.47;5057014;28;20063;-74
2022/01/27 06:15:51;;;;;;;45.97;24.17;;;;;;;3.90;90.37;102344.75;5071430;28;20044;-74
2022/01/27 06:18:16;;;;;;;43.80;24.45;;;;;;;3.92;90.39;102340.38;5068843;28;20384;-74
2022/01/27 06:20:44;;;;;;;47.00;23.38;;;;;;;3.93;90.62;102347.28;5045641;28;20016;-74
2022/01/27 06:23:10;;;;;;;41.95;23.88;;;;;;;3.92;91.23;102345.56;5051253;28;20032;-74
2022/01/27 06:25:35;;;;;;;45.22;23.83;;;;;;;3.90;91.15;102343.00;5051000;28;20166;-82
2022/01/27 06:28:01;;;;;;;50.08;25.55;;;;;;;3.97;91.47;102344.59;5050860;28;20024;-74
2022/01/27 06:30:26;;;;;;;47.13;25.70;;;;;;;3.93;91.79;102342.09;5051522;28;20500;-74
2022/01/27 06:32:52;;;;;;;43.88;24.33;;;;;;;3.99;92.36;102349.75;5049899;28;20037;-74
2022/01/27 06:35:18;;;;;;;49.25;25.55;;;;;;;3.99;92.19;102340.19;5048817;28;20021;-75
2022/01/27 06:37:45;;;;;;;44.42;24.30;;;;;;;3.96;92.60;102334.19;5039899;28;20048;-74
2022/01/27 06:40:11;;;;;;;50.05;25.60;;;;;;;4.01;92.22;102342.78;5029163;28;20522;-82
2022/01/27 06:42:37;;;;;;;47.88;26.10;;;;;;;4.00;92.94;102335.84;5031721;28;20025;-81
2022/01/27 06:45:04;;;;;;;48.58;24.95;;;;;;;3.96;92.63;102322.03;5029455;28;20477;-81
2022/01/27 06:47:29;;;;;;;48.30;25.77;;;;;;;3.95;92.97;102303.84;5046767;28;20086;-74
2022/01/27 06:49:55;;;;;;;46.38;25.05;;;;;;;4.02;93.08;102315.88;5030630;28;20029;-76
2022/01/27 06:52:22;;;;;;;45.78;23.98;;;;;;;4.02;92.98;102303.69;5050286;28;20082;-76
2022/01/27 06:54:49;;;;;;;45.83;26.65;;;;;;;4.07;93.00;102309.66;5042850;28;20029;-76
2022/01/27 06:57:15;;;;;;;47.80;25.80;;;;;;;4.08;93.08;102331.34;5050070;28;20375;-77
2022/01/27 06:59:40;;;;;;;46.65;25.77;;;;;;;4.05;92.76;102321.84;5049938;28;20036;-75
2022/01/27 07:02:06;;;;;;;48.47;25.02;;;;;;;4.05;93.00;102310.59;5050984;28;20170;-82
2022/01/27 07:04:32;;;;;;;49.63;25.20;;;;;;;4.12;92.76;102316.50;5050969;28;20562;-82
2022/01/27 07:06:57;;;;;;;50.92;25.92;;;;;;;4.06;92.72;102310.53;5048803;28;20021;-74
2022/01/27 07:09:22;;;;;;;46.15;25.25;;;;;;;4.07;92.84;102309.66;5048780;28;20025;-75
2022/01/27 07:11:48;;;;;;;49.72;25.27;;;;;;;4.07;93.09;102314.00;5046063;28;20127;-75
2022/01/27 07:14:13;;;;;;;49.38;25.38;;;;;;;4.14;92.98;102327.72;5060995;28;20105;-74
2022/01/27 07:16:38;;;;;;;45.53;25.90;;;;;;;4.16;92.83;102315.53;5070945;28;20036;-75
2022/01/27 07:19:04;;;;;;;48.13;25.83;;;;;;;4.13;92.57;102313.00;5068943;28;20028;-82
2022/01/27 07:21:29;;;;;;;51.67;25.95;;;;;;;4.16;92.71;102311.19;5057647;28;20492;-75
2022/01/27 07:23:55;;;;;;;47.53;25.30;;;;;;;4.20;93.05;102331.03;5050122;28;20025;-75
2022/01/27 07:26:25;;;;;;;45.95;25.52;;;;;;;4.23;92.85;102336.19;5048576;28;20392;-75
2022/01/27 07:28:55;;;;;;;49.28;27.23;;;;;;;4.19;92.82;102333.69;5047411;28;20064;-74
2022/01/27 07:31:21;;;;;;;50.90;25.73;;;;;;;4.24;92.95;102331.81;5050056;28;20394;-75
2022/01/27 07:33:48;;;;;;;52.80;26.60;;;;;;;4.22;92.79;102337.06;5049603;28;20032;-75
2022/01/27 07:36:15;;;;;;;56.53;26.90;;;;;;;4.21;92.78;102324.94;5049232;28;20071;-75
2022/01/27 07:38:41;;;;;;;51.22;26.30;;;;;;;4.27;92.55;102335.22;5048492;28;20029;-75
2022/01/27 07:41:06;;;;;;;53.97;26.98;;;;;;;4.28;92.86;102336.94;5049087;28;20031;-75
2022/01/27 07:43:31;;;;;;;49.42;26.55;;;;;;;4.25;92.48;102329.19;5041934;28;20022;-75
2022/01/27 07:45:59;;;;;;;50.15;26.23;;;;;;;4.31;92.48;102325.56;5048916;28;20143;-77
2022/01/27 07:48:25;;;;;;;50.15;26.35;;;;;;;4.33;92.84;102315.97;5048212;28;20043;-76
2022/01/27 07:50:50;;;;;;;51.47;26.67;;;;;;;4.33;92.43;102316.81;5046362;28;20481;-76
2022/01/27 07:53:16;;;;;;;55.38;26.50;;;;;;;4.42;93.12;102325.34;5043723;28;20047;-75
2022/01/27 07:55:41;;;;;;;50.75;25.65;;;;;;;4.37;93.16;102321.06;5036053;28;20056;-75
2022/01/27 07:58:06;;;;;;;51.47;27.25;;;;;;;4.42;94.14;102327.94;5036172;28;20044;-75
2022/01/27 08:00:32;;;;;;;50.95;26.65;;;;;;;4.47;94.66;102337.34;5035030;28;20021;-76
2022/01/27 08:02:57;;;;;;;55.25;27.92;;;;;;;4.42;95.32;102338.38;5031750;28;20861;-75
2022/01/27 08:05:23;;;;;;;57.05;27.50;;;;;;;4.44;95.79;102333.97;5036009;28;20032;-75
2022/01/27 08:07:48;;;;;;;55.65;29.25;;;;;;;4.40;96.17;102333.16;5033754;28;20745;-75
2022/01/27 08:10:13;;;;;;;58.70;28.73;;;;;;;4.45;96.41;102338.28;5040628;28;20029;-75
2022/01/27 08:12:41;;;;;;;56.28;29.10;;;;;;;4.40;97.13;102339.25;5034814;28;20037;-73
2022/01/27 08:15:07;;;;;;;65.47;31.17;;;;;;;4.44;97.55;102341.78;5040090;28;20423;-73
2022/01/27 08:17:32;;;;;;;61.55;29.88;;;;;;;4.39;97.65;102332.31;5037246;28;20102;-76
2022/01/27 08:19:58;;;;;;;58.33;29.80;;;;;;;4.40;98.24;102331.44;5034317;28;20033;-76
2022/01/27 08:22:23;;;;;;;64.45;31.80;;;;;;;4.44;98.22;102336.56;5034197;28;20029;-76
2022/01/27 08:24:48;;;;;;;59.30;30.50;;;;;;;4.44;98.43;102328.75;5038488;28;20033;-75
2022/01/27 08:27:17;;;;;;;63.65;31.20;;;;;;;4.45;98.90;102335.69;5036160;28;20025;-76
2022/01/27 08:29:48;;;;;;;58.83;30.13;;;;;;;4.44;98.75;102329.63;5037453;28;20045;-76
2022/01/27 08:32:19;;;;;;;65.85;32.85;;;;;;;4.40;99.04;102323.63;5041885;28;20468;-76
2022/01/27 08:34:44;;;;;;;61.97;31.52;;;;;;;4.44;99.40;102328.75;5040311;28;20444;-76
2022/01/27 08:37:12;;;;;;;58.10;31.40;;;;;;;4.45;99.45;102335.69;5037460;28;20063;-75
2022/01/27 08:39:41;;;;;;;66.72;31.63;;;;;;;4.46;99.66;102337.38;5036259;28;20353;-75
2022/01/27 08:42:07;;;;;;;64.15;31.17;;;;;;;4.42;99.64;102320.13;5033689;28;20752;-75
2022/01/27 08:44:34;;;;;;;63.00;31.13;;;;;;;4.45;100.00;102327.84;5038473;28;20021;-76
2022/01/27 08:47:00;;;;;;;66.22;32.00;;;;;;;4.47;99.76;102328.69;5045858;28;20485;-75
2022/01/27 08:49:26;;;;;;;60.45;31.50;;;;;;;4.47;100.00;102328.69;5041829;28;20116;-75
2022/01/27 08:51:53;;;;;;;63.03;31.88;;;;;;;4.44;100.00;102320.94;5045938;28;20478;-76
2022/01/27 08:54:18;;;;;;;70.70;32.70;;;;;;;4.51;100.00;102340.75;5047287;28;20033;-73
2022/01/27 08:56:44;;;;;;;65.47;31.88;;;;;;;4.51;100.00;102333.78;5040156;28;20389;-74
2022/01/27 08:59:09;;;;;;;68.95;33.35;;;;;;;4.53;100.00;102323.31;5029485;28;20026;-72
2022/01/27 09:01:35;;;;;;;60.67;31.55;;;;;;;4.54;100.00;102319.81;5046138;28;20013;-72
2022/01/27 09:04:02;;;;;;;66.45;31.85;;;;;;;4.53;100.00;102320.69;5044263;28;20021;-72
2022/01/27 09:06:28;;;;;;;64.65;31.95;;;;;;;4.55;100.00;102327.59;5046874;28;20021;-72
2022/01/27 09:08:55;;;;;;;67.38;32.75;;;;;;;4.60;100.00;102332.69;5047660;28;20071;-72
2022/01/27 09:11:20;;;;;;;65.93;32.75;;;;;;;4.61;100.00;102326.56;5047978;28;20100;-72
2022/01/27 09:13:49;;;;;;;70.95;33.90;;;;;;;4.65;100.00;102325.59;5046445;28;20111;-72
2022/01/27 09:16:16;;;;;;;70.05;33.92;;;;;;;4.67;100.00;102326.41;5047679;28;20103;-72
2022/01/27 09:18:41;;;;;;;64.50;32.55;;;;;;;4.69;100.00;102319.41;5050692;28;20400;-72
2022/01/27 09:21:12;;;;;;;72.55;35.00;;;;;;;4.71;100.00;102322.81;5049348;28;20023;-72
2022/01/27 09:23:41;;;;;;;67.30;33.75;;;;;;;4.76;100.00;102326.16;5050712;28;20039;-72
2022/01/27 09:26:10;;;;;;;64.93;34.42;;;;;;;4.77;100.00;102322.66;5047587;28;20025;-72
2022/01/27 09:28:36;;;;;;;69.20;35.72;;;;;;;4.79;100.00;102315.66;5051360;28;20838;-72
2022/01/27 09:31:02;;;;;;;64.68;33.33;;;;;;;4.80;100.00;102327.78;5050601;28;20053;-72
2022/01/27 09:33:28;;;;;;;69.25;35.42;;;;;;;4.83;100.00;102322.53;5050378;28;20079;-75
2022/01/27 09:35:54;;;;;;;65.93;34.03;;;;;;;4.85;100.00;102325.94;5049403;28;20016;-72
2022/01/27 09:38:19;;;;;;;64.63;33.33;;;;;;;4.86;100.00;102327.66;5052267;28;20017;-72
2022/01/27 09:40:50;;;;;;;60.67;33.25;;;;;;;4.90;100.00;102312.78;5051564;28;20021;-74
2022/01/27 09:43:16;;;;;;;66.20;35.03;;;;;;;4.92;100.00;102314.47;5050484;28;20017;-75
2022/01/27 09:45:42;;;;;;;61.13;34.00;;;;;;;4.92;100.00;102317.06;5051627;28;20166;-75
2022/01/27 09:48:13;;;;;;;62.28;34.53;;;;;;;4.95;100.00;102322.19;5051109;28;20648;-75
2022/01/27 09:51:21;;;;;;;58.63;32.78;;;;;;;4.97;100.00;102322.16;5047763;28;20039;-75
2022/01/27 09:53:50;;;;;;;54.25;32.03;;;;;;;4.98;100.00;102322.09;5051655;28;20110;-75
2022/01/27 09:56:17;;;;;;;55.70;31.15;;;;;;;4.99;100.00;102336.88;5048748;28;20052;-74
2022/01/27 09:58:43;;;;;;;55.83;32.17;;;;;;;5.01;100.00;102327.25;5051631;28;20013;-75
2022/01/27 10:01:08;;;;;;;52.47;31.30;;;;;;;4.99;100.00;102328.19;5049339;28;20043;-75
2022/01/27 10:03:50;;;;;;;51.83;31.42;;;;;;;5.06;100.00;102339.31;5049901;28;20035;-78
2022/01/27 10:06:18;;;;;;;54.45;31.50;;;;;;;5.08;100.00;102342.72;5047483;28;20015;-75
2022/01/27 10:08:43;;;;;;;54.45;32.40;;;;;;;5.06;100.00;102339.31;5049261;28;20108;-75
2022/01/27 10:11:15;;;;;;;48.38;30.05;;;;;;;5.09;100.00;102341.81;5050062;28;20088;-75
2022/01/27 10:13:43;;;;;;;52.85;30.75;;;;;;;5.09;100.00;102334.84;5049549;28;20041;-75
2022/01/27 10:16:27;;;;;;;51.55;31.40;;;;;;;5.14;100.00;102335.59;5047305;28;20447;-75
2022/01/27 10:19:03;;;;;;;50.25;28.92;;;;;;;5.15;100.00;102333.81;5044388;28;20099;-75
2022/01/27 10:21:33;;;;;;;46.47;29.45;;;;;;;5.17;100.00;102338.09;5035868;28;20022;-74
2022/01/27 10:24:19;;;;;;;50.47;29.27;;;;;;;5.22;100.00;102340.63;5029683;28;20033;-74
2022/01/27 10:26:59;;;;;;;47.00;28.58;;;;;;;5.22;100.00;102336.25;5034678;28;20507;-75
2022/01/27 10:29:47;;;;;;;48.90;28.88;;;;;;;5.24;100.00;102331.84;5051095;28;20027;-74
2022/01/27 10:32:12;;;;;;;44.70;28.10;;;;;;;5.24;100.00;102336.22;5050483;28;20515;-74
2022/01/27 10:34:58;;;;;;;45.40;29.00;;;;;;;5.27;100.00;102328.28;5051238;28;20025;-75
2022/01/27 10:37:24;;;;;;;49.28;29.90;;;;;;;5.27;100.00;102329.16;5049038;28;20032;-74
2022/01/27 10:39:49;;;;;;;48.58;28.88;;;;;;;5.30;100.00;102322.97;5049886;28;20035;-74
2022/01/27 10:42:20;;;;;;;48.85;29.98;;;;;;;5.29;100.00;102329.97;5050988;28;20392;-75
2022/01/27 10:44:55;;;;;;;44.05;29.80;;;;;;;5.31;100.00;102325.53;5050364;28;20075;-74
2022/01/27 10:47:28;;;;;;;44.78;28.90;;;;;;;5.33;100.00;102330.72;5050987;28;20098;-75
2022/01/27 10:50:01;;;;;;;42.05;28.80;;;;;;;5.33;100.00;102333.34;5050821;28;20480;-75
2022/01/27 10:52:41;;;;;;;43.42;28.60;;;;;;;5.36;100.00;102333.25;5050703;28;20100;-75
2022/01/27 10:55:11;;;;;;;46.53;29.38;;;;;;;5.36;100.00;102333.25;5049567;28;20029;-75
2022/01/27 10:57:36;;;;;;;41.40;28.75;;;;;;;5.39;100.00;102333.16;5051204;28;20033;-74
2022/01/27 11:00:10;;;;;;;40.38;28.42;;;;;;;5.42;100.00;102332.22;5049678;28;20376;-75
2022/01/27 11:02:58;;;;;;;44.35;29.13;;;;;;;5.45;100.00;102332.13;5051132;28;20037;-75
2022/01/27 11:05:26;;;;;;;44.25;29.33;;;;;;;5.46;100.00;102326.84;5049033;28;20440;-75
2022/01/27 11:07:52;;;;;;;41.60;28.70;;;;;;;5.47;100.00;102320.72;5031803;28;20417;-75
2022/01/27 11:10:19;;;;;;;45.47;28.75;;;;;;;5.50;100.00;102328.47;5031019;28;20094;-77
2022/01/27 11:12:50;;;;;;;43.15;28.38;;;;;;;5.52;100.00;102329.28;5030457;28;20029;-74
2022/01/27 11:15:20;;;;;;;44.22;27.98;;;;;;;5.54;100.00;102317.03;5031503;28;20022;-74
2022/01/27 11:17:50;;;;;;;46.58;29.38;;;;;;;5.56;100.00;102314.38;5029646;28;20112;-75
2022/01/27 11:25:52;;;;;;;47.27;29.70;;;;;;;5.67;100.00;102312.34;5045998;28;20043;-75
2022/01/27 11:28:20;;;;;;;48.05;30.00;;;;;;;5.71;100.00;102302.66;5039894;28;20086;-75
2022/01/27 11:31:07;;;;;;;49.33;30.38;;;;;;;5.74;100.00;102297.31;5048127;28;20052;-75
2022/01/27 11:33:35;;;;;;;44.75;28.63;;;;;;;5.77;100.00;102286.78;5047348;28;20016;-74
2022/01/27 11:36:12;;;;;;;47.90;29.10;;;;;;;5.81;100.00;102291.00;5049296;28;20020;-75
2022/01/27 11:38:43;;;;;;;46.13;28.10;;;;;;;5.86;100.00;102291.72;5048565;28;20029;-75
2022/01/27 11:41:43;;;;;;;49.38;30.02;;;;;;;5.86;100.00;102282.13;5042568;28;20024;-74
2022/01/27 11:44:22;;;;;;;46.20;28.23;;;;;;;5.92;100.00;102276.72;5038033;28;20036;-75
2022/01/27 11:47:10;;;;;;;46.85;28.20;;;;;;;5.94;100.00;102285.38;5045424;28;20029;-75
2022/01/27 11:49:55;;;;;;;49.13;29.42;;;;;;;5.98;100.00;102284.38;5047267;28;20036;-74
2022/01/27 11:52:26;;;;;;;49.35;28.23;;;;;;;6.02;100.00;102274.72;5045981;28;20032;-75
2022/01/27 11:54:52;;;;;;;50.90;29.25;;;;;;;6.04;100.00;102280.75;5053909;28;20032;-74
2022/01/27 11:57:40;;;;;;;46.63;29.52;;;;;;;6.06;100.00;102278.94;5038944;28;20033;-75
2022/01/27 12:00:11;;;;;;;48.97;28.05;;;;;;;6.09;100.00;102284.06;5044699;28;20327;-75
2022/01/27 12:03:01;;;;;;;46.88;27.75;;;;;;;6.12;100.00;102280.50;5035212;28;20033;-74
2022/01/27 12:05:39;;;;;;;46.83;25.25;;;;;;;6.11;100.00;102277.03;5036172;28;20067;-75
2022/01/27 12:08:14;;;;;;;43.95;25.60;;;;;;;6.16;100.00;102269.88;5036017;28;20032;-75
2022/01/27 12:10:56;;;;;;;40.42;25.35;;;;;;;6.18;100.00;102275.06;5036533;28;20029;-75
2022/01/27 12:13:38;;;;;;;41.45;24.80;;;;;;;6.21;100.00;102278.41;5038343;28;20025;-74
2022/01/27 12:16:37;;;;;;;37.17;22.95;;;;;;;6.23;100.00;102276.59;5033393;28;20048;-74
2022/01/27 12:19:10;;;;;;;39.10;22.98;;;;;;;6.26;100.00;102273.91;5034030;28;20029;-75